North Sudbury, Massachusetts
Current Conditions -  °F | °C
As of 12:56 AM on Monday 20 Oct 2014 (Local Time) from KBED Reporting Station
Clear Clear  
Wind Chill: 31°   Ceiling: Unl
Heat Index: 38°   Visibility: 10mi
Dew Point: 23°   Wind: 9mph
Humidity: 55%   Direction: 290°WNW
Pressure: 29.96"   Gusts: NA
Location:  42.3844°N, 71.4233°W
Report Text: KBED 200456Z AUTO 29008KT 10SM CLR 03/M05 A2996 RMK AO2 SLP161 T00331050 401280033 TSNO
Loading
Personal Weather Stations






























Interactive Weather Map
Tropical Storm Tracking
New forecast layout! Learn more

10-Day Weather Forecast

Advertisements
Track Severe Weather on mobile